sensor_id;sensor_type;location;lat;lon;timestamp;pressure;altitude;pressure_sealevel;temperature;humidity
55466;BME280;41329;41.594;23.810;2024-02-21T00:00:52;95869.19;;;6.76;59.92
55466;BME280;41329;41.594;23.810;2024-02-21T00:03:17;95855.34;;;6.64;60.05
55466;BME280;41329;41.594;23.810;2024-02-21T00:05:43;95881.03;;;6.68;60.21
55466;BME280;41329;41.594;23.810;2024-02-21T00:08:08;95884.75;;;6.72;60.33
55466;BME280;41329;41.594;23.810;2024-02-21T00:10:34;95882.94;;;6.76;60.35
55466;BME280;41329;41.594;23.810;2024-02-21T00:13:00;95860.03;;;6.63;60.07
55466;BME280;41329;41.594;23.810;2024-02-21T00:15:26;95872.25;;;6.75;59.99
55466;BME280;41329;41.594;23.810;2024-02-21T00:17:51;95869.19;;;6.76;60.07
55466;BME280;41329;41.594;23.810;2024-02-21T00:20:17;95873.22;;;6.79;59.96
55466;BME280;41329;41.594;23.810;2024-02-21T00:22:43;95798.31;;;6.32;59.86
55466;BME280;41329;41.594;23.810;2024-02-21T00:25:08;95875.50;;;6.77;60.18
55466;BME280;41329;41.594;23.810;2024-02-21T00:27:34;95858.22;;;6.68;60.13
55466;BME280;41329;41.594;23.810;2024-02-21T00:29:59;95862.28;;;6.70;60.25
55466;BME280;41329;41.594;23.810;2024-02-21T00:32:24;95870.25;;;6.84;60.23
55466;BME280;41329;41.594;23.810;2024-02-21T00:34:50;95872.34;;;6.87;60.35
55466;BME280;41329;41.594;23.810;2024-02-21T00:37:16;95869.09;;;6.85;60.64
55466;BME280;41329;41.594;23.810;2024-02-21T00:39:42;95874.81;;;6.80;61.26
55466;BME280;41329;41.594;23.810;2024-02-21T00:42:07;95861.34;;;6.66;61.78
55466;BME280;41329;41.594;23.810;2024-02-21T00:44:33;95864.94;;;6.58;62.39
55466;BME280;41329;41.594;23.810;2024-02-21T00:46:58;95873.78;;;6.63;62.73
55466;BME280;41329;41.594;23.810;2024-02-21T00:49:23;95875.94;;;6.58;62.94
55466;BME280;41329;41.594;23.810;2024-02-21T00:51:49;95865.75;;;6.58;63.29
55466;BME280;41329;41.594;23.810;2024-02-21T00:54:14;95876.06;;;6.62;63.34
55466;BME280;41329;41.594;23.810;2024-02-21T00:56:40;95846.94;;;6.40;63.58
55466;BME280;41329;41.594;23.810;2024-02-21T00:59:05;95851.91;;;6.46;63.87
55466;BME280;41329;41.594;23.810;2024-02-21T01:01:30;95865.16;;;6.74;63.38
55466;BME280;41329;41.594;23.810;2024-02-21T01:03:56;95869.78;;;6.82;63.39
55466;BME280;41329;41.594;23.810;2024-02-21T01:06:21;95870.25;;;6.84;63.55
55466;BME280;41329;41.594;23.810;2024-02-21T01:08:47;95871.00;;;6.93;63.68
55466;BME280;41329;41.594;23.810;2024-02-21T01:11:13;95846.78;;;6.86;63.44
55466;BME280;41329;41.594;23.810;2024-02-21T01:13:39;95857.06;;;6.98;62.98
55466;BME280;41329;41.594;23.810;2024-02-21T01:16:04;95867.31;;;7.09;62.63
55466;BME280;41329;41.594;23.810;2024-02-21T01:18:37;95865.09;;;7.03;62.52
55466;BME280;41329;41.594;23.810;2024-02-21T01:21:02;95861.78;;;6.89;62.41
55466;BME280;41329;41.594;23.810;2024-02-21T01:23:32;95879.31;;;6.84;62.23
55466;BME280;41329;41.594;23.810;2024-02-21T01:25:57;95891.59;;;6.66;61.96
55466;BME280;41329;41.594;23.810;2024-02-21T01:28:23;95876.47;;;6.52;62.28
55466;BME280;41329;41.594;23.810;2024-02-21T01:30:48;95876.19;;;6.44;61.97
55466;BME280;41329;41.594;23.810;2024-02-21T01:33:13;95874.19;;;6.24;62.29
55466;BME280;41329;41.594;23.810;2024-02-21T01:35:39;95853.25;;;6.11;62.89
55466;BME280;41329;41.594;23.810;2024-02-21T01:38:04;95867.72;;;6.29;63.06
55466;BME280;41329;41.594;23.810;2024-02-21T01:40:30;95864.63;;;6.30;63.45
55466;BME280;41329;41.594;23.810;2024-02-21T01:42:55;95865.41;;;6.31;63.57
55466;BME280;41329;41.594;23.810;2024-02-21T01:45:21;95868.34;;;6.34;63.46
55466;BME280;41329;41.594;23.810;2024-02-21T01:47:48;95867.66;;;6.37;63.65
55466;BME280;41329;41.594;23.810;2024-02-21T01:50:15;95852.00;;;6.29;63.71
55466;BME280;41329;41.594;23.810;2024-02-21T01:52:42;95849.22;;;6.09;64.01
55466;BME280;41329;41.594;23.810;2024-02-21T01:55:09;95845.00;;;6.11;64.18
55466;BME280;41329;41.594;23.810;2024-02-21T01:57:36;95851.59;;;6.19;64.63
55466;BME280;41329;41.594;23.810;2024-02-21T02:00:02;95841.75;;;6.18;65.08
55466;BME280;41329;41.594;23.810;2024-02-21T02:02:28;95824.78;;;6.16;64.89
55466;BME280;41329;41.594;23.810;2024-02-21T02:04:54;95844.28;;;6.23;64.83
55466;BME280;41329;41.594;23.810;2024-02-21T02:07:20;95841.03;;;6.29;64.85
55466;BME280;41329;41.594;23.810;2024-02-21T02:09:45;95845.09;;;6.23;65.18
55466;BME280;41329;41.594;23.810;2024-02-21T02:12:10;95833.16;;;6.19;65.41
55466;BME280;41329;41.594;23.810;2024-02-21T02:14:36;95843.94;;;6.33;65.43
55466;BME280;41329;41.594;23.810;2024-02-21T02:17:01;95840.22;;;6.29;65.52
55466;BME280;41329;41.594;23.810;2024-02-21T02:19:27;95839.72;;;6.35;65.81
55466;BME280;41329;41.594;23.810;2024-02-21T02:22:12;95833.72;;;6.33;65.96
55466;BME280;41329;41.594;23.810;2024-02-21T02:24:40;95837.09;;;6.39;65.87
55466;BME280;41329;41.594;23.810;2024-02-21T02:27:05;95841.59;;;6.43;66.10
55466;BME280;41329;41.594;23.810;2024-02-21T02:29:32;95833.81;;;6.45;65.90
55466;BME280;41329;41.594;23.810;2024-02-21T02:31:58;95813.97;;;6.40;65.84
55466;BME280;41329;41.594;23.810;2024-02-21T02:34:23;95833.91;;;6.57;66.00
55466;BME280;41329;41.594;23.810;2024-02-21T02:36:49;95831.75;;;6.63;65.91
55466;BME280;41329;41.594;23.810;2024-02-21T02:39:14;95831.44;;;6.65;65.98
55466;BME280;41329;41.594;23.810;2024-02-21T02:41:40;95832.81;;;6.71;65.88
55466;BME280;41329;41.594;23.810;2024-02-21T02:44:05;95837.00;;;6.77;65.90
55466;BME280;41329;41.594;23.810;2024-02-21T02:46:30;95838.41;;;6.83;65.54
55466;BME280;41329;41.594;23.810;2024-02-21T02:48:56;95828.66;;;6.85;65.45
55466;BME280;41329;41.594;23.810;2024-02-21T02:51:21;95841.53;;;6.93;65.28
55466;BME280;41329;41.594;23.810;2024-02-21T02:53:46;95834.13;;;6.94;64.75
55466;BME280;41329;41.594;23.810;2024-02-21T02:56:15;95847.19;;;6.76;64.45
55466;BME280;41329;41.594;23.810;2024-02-21T02:58:42;95849.56;;;6.57;64.54
55466;BME280;41329;41.594;23.810;2024-02-21T03:01:08;95825.34;;;6.30;64.31
55466;BME280;41329;41.594;23.810;2024-02-21T03:03:33;95850.22;;;6.33;64.26
55466;BME280;41329;41.594;23.810;2024-02-21T03:05:59;95850.03;;;6.38;64.29
55466;BME280;41329;41.594;23.810;2024-02-21T03:08:26;95823.25;;;6.27;64.07
55466;BME280;41329;41.594;23.810;2024-02-21T03:10:51;95828.44;;;6.28;63.86
55466;BME280;41329;41.594;23.810;2024-02-21T03:13:17;95854.53;;;6.43;63.69
55466;BME280;41329;41.594;23.810;2024-02-21T03:15:42;95847.44;;;6.42;63.58
55466;BME280;41329;41.594;23.810;2024-02-21T03:18:07;95823.41;;;6.30;63.34
55466;BME280;41329;41.594;23.810;2024-02-21T03:20:33;95853.06;;;6.45;63.48
55466;BME280;41329;41.594;23.810;2024-02-21T03:22:58;95832.75;;;6.38;63.61
55466;BME280;41329;41.594;23.810;2024-02-21T03:25:24;95838.03;;;6.43;63.38
55466;BME280;41329;41.594;23.810;2024-02-21T03:27:49;95813.81;;;6.36;63.54
55466;BME280;41329;41.594;23.810;2024-02-21T03:30:14;95839.09;;;6.50;63.64
55466;BME280;41329;41.594;23.810;2024-02-21T03:32:40;95832.50;;;6.52;63.40
55466;BME280;41329;41.594;23.810;2024-02-21T03:35:05;95827.97;;;6.47;63.49
55466;BME280;41329;41.594;23.810;2024-02-21T03:37:31;95840.53;;;6.57;63.88
55466;BME280;41329;41.594;23.810;2024-02-21T03:39:56;95842.28;;;6.61;63.79
55466;BME280;41329;41.594;23.810;2024-02-21T03:42:22;95830.94;;;6.63;63.48
55466;BME280;41329;41.594;23.810;2024-02-21T03:44:47;95831.75;;;6.63;63.57
55466;BME280;41329;41.594;23.810;2024-02-21T03:47:13;95840.63;;;6.69;63.31
55466;BME280;41329;41.594;23.810;2024-02-21T03:49:39;95836.72;;;6.70;63.32
55466;BME280;41329;41.594;23.810;2024-02-21T03:52:05;95830.06;;;6.71;63.35
55466;BME280;41329;41.594;23.810;2024-02-21T03:54:30;95812.03;;;6.61;63.58
55466;BME280;41329;41.594;23.810;2024-02-21T03:56:55;95829.09;;;6.75;63.31
55466;BME280;41329;41.594;23.810;2024-02-21T03:59:22;95831.13;;;6.78;63.09
55466;BME280;41329;41.594;23.810;2024-02-21T04:01:51;95824.13;;;6.69;62.69
55466;BME280;41329;41.594;23.810;2024-02-21T04:04:17;95842.84;;;6.75;62.56
55466;BME280;41329;41.594;23.810;2024-02-21T04:06:46;95836.50;;;6.75;62.42
55466;BME280;41329;41.594;23.810;2024-02-21T04:09:12;95831.88;;;6.67;62.56
55466;BME280;41329;41.594;23.810;2024-02-21T04:11:37;95835.78;;;6.66;62.45
55466;BME280;41329;41.594;23.810;2024-02-21T04:14:03;95833.03;;;6.66;62.99
55466;BME280;41329;41.594;23.810;2024-02-21T04:16:28;95818.06;;;6.54;62.84
55466;BME280;41329;41.594;23.810;2024-02-21T04:18:53;95835.66;;;6.62;63.01
55466;BME280;41329;41.594;23.810;2024-02-21T04:21:19;95817.59;;;6.53;63.10
55466;BME280;41329;41.594;23.810;2024-02-21T04:23:44;95822.44;;;6.56;63.02
55466;BME280;41329;41.594;23.810;2024-02-21T04:26:09;95832.28;;;6.57;63.19
55466;BME280;41329;41.594;23.810;2024-02-21T04:28:35;95833.22;;;6.61;63.62
55466;BME280;41329;41.594;23.810;2024-02-21T04:31:00;95811.50;;;6.47;63.54
55466;BME280;41329;41.594;23.810;2024-02-21T04:33:26;95836.44;;;6.63;63.53
55466;BME280;41329;41.594;23.810;2024-02-21T04:35:51;95829.34;;;6.62;63.62
55466;BME280;41329;41.594;23.810;2024-02-21T04:38:19;95830.00;;;6.58;63.22
55466;BME280;41329;41.594;23.810;2024-02-21T04:40:45;95833.06;;;6.57;63.02
55466;BME280;41329;41.594;23.810;2024-02-21T04:43:10;95813.41;;;6.46;62.95
55466;BME280;41329;41.594;23.810;2024-02-21T04:45:36;95840.06;;;6.54;62.91
55466;BME280;41329;41.594;23.810;2024-02-21T04:48:01;95811.22;;;6.40;62.60
55466;BME280;41329;41.594;23.810;2024-02-21T04:50:27;95840.75;;;6.52;62.12
55466;BME280;41329;41.594;23.810;2024-02-21T04:52:52;95830.59;;;6.43;61.80
55466;BME280;41329;41.594;23.810;2024-02-21T04:55:18;95847.09;;;6.43;62.15
55466;BME280;41329;41.594;23.810;2024-02-21T04:57:43;95842.13;;;6.37;61.85
55466;BME280;41329;41.594;23.810;2024-02-21T05:00:09;95835.19;;;6.31;61.81
55466;BME280;41329;41.594;23.810;2024-02-21T05:02:34;95824.94;;;6.19;61.85
55466;BME280;41329;41.594;23.810;2024-02-21T05:05:00;95843.00;;;6.20;61.90
55466;BME280;41329;41.594;23.810;2024-02-21T05:07:25;95844.16;;;6.19;62.11
55466;BME280;41329;41.594;23.810;2024-02-21T05:09:51;95860.19;;;6.17;62.09
55466;BME280;41329;41.594;23.810;2024-02-21T05:12:16;95861.97;;;6.13;62.33
55466;BME280;41329;41.594;23.810;2024-02-21T05:14:41;95855.88;;;6.08;62.19
55466;BME280;41329;41.594;23.810;2024-02-21T05:17:07;95856.50;;;6.05;61.97
55466;BME280;41329;41.594;23.810;2024-02-21T05:19:32;95849.13;;;5.97;61.74
55466;BME280;41329;41.594;23.810;2024-02-21T05:21:58;95853.81;;;5.96;61.59
55466;BME280;41329;41.594;23.810;2024-02-21T05:24:24;95856.91;;;5.86;62.04
55466;BME280;41329;41.594;23.810;2024-02-21T05:26:49;95846.59;;;5.75;62.35
55466;BME280;41329;41.594;23.810;2024-02-21T05:29:15;95864.19;;;5.82;62.18
55466;BME280;41329;41.594;23.810;2024-02-21T05:34:18;95868.75;;;5.70;62.82
55466;BME280;41329;41.594;23.810;2024-02-21T05:36:44;95860.06;;;5.59;62.29
55466;BME280;41329;41.594;23.810;2024-02-21T05:39:10;95880.56;;;5.62;62.40
55466;BME280;41329;41.594;23.810;2024-02-21T05:41:35;95880.72;;;5.57;62.31
55466;BME280;41329;41.594;23.810;2024-02-21T05:44:01;95886.88;;;5.54;62.59
55466;BME280;41329;41.594;23.810;2024-02-21T05:46:26;95869.78;;;5.40;62.51
55466;BME280;41329;41.594;23.810;2024-02-21T05:48:51;95890.13;;;5.47;62.76
55466;BME280;41329;41.594;23.810;2024-02-21T05:51:17;95890.44;;;5.46;63.09
55466;BME280;41329;41.594;23.810;2024-02-21T05:53:42;95886.88;;;5.45;63.27
55466;BME280;41329;41.594;23.810;2024-02-21T05:56:11;95873.03;;;5.33;63.52
55466;BME280;41329;41.594;23.810;2024-02-21T05:58:37;95894.00;;;5.46;63.40
55466;BME280;41329;41.594;23.810;2024-02-21T06:01:03;95888.66;;;5.41;63.61
55466;BME280;41329;41.594;23.810;2024-02-21T06:03:29;95892.25;;;5.33;64.64
55466;BME280;41329;41.594;23.810;2024-02-21T06:05:54;95896.59;;;5.34;65.03
55466;BME280;41329;41.594;23.810;2024-02-21T06:08:20;95890.16;;;5.30;65.27
55466;BME280;41329;41.594;23.810;2024-02-21T06:10:45;95903.03;;;5.38;65.66
55466;BME280;41329;41.594;23.810;2024-02-21T06:13:11;95909.19;;;5.44;65.51
55466;BME280;41329;41.594;23.810;2024-02-21T06:15:36;95914.16;;;5.42;65.45
55466;BME280;41329;41.594;23.810;2024-02-21T06:18:02;95884.47;;;5.27;65.47
55466;BME280;41329;41.594;23.810;2024-02-21T06:20:27;95914.81;;;5.47;65.74
55466;BME280;41329;41.594;23.810;2024-02-21T06:22:53;95910.94;;;5.48;65.83
55466;BME280;41329;41.594;23.810;2024-02-21T06:25:19;95923.19;;;5.59;66.27
55466;BME280;41329;41.594;23.810;2024-02-21T06:27:44;95920.91;;;5.70;66.75
55466;BME280;41329;41.594;23.810;2024-02-21T06:30:10;95925.91;;;5.76;66.87
55466;BME280;41329;41.594;23.810;2024-02-21T06:32:35;95929.16;;;5.70;67.34
55466;BME280;41329;41.594;23.810;2024-02-21T06:35:01;95926.69;;;5.77;67.19
55466;BME280;41329;41.594;23.810;2024-02-21T06:37:27;95909.19;;;5.44;67.30
55466;BME280;41329;41.594;23.810;2024-02-21T06:39:52;95937.22;;;5.49;67.83
55466;BME280;41329;41.594;23.810;2024-02-21T06:42:18;95937.09;;;5.54;68.33
55466;BME280;41329;41.594;23.810;2024-02-21T06:44:44;95915.28;;;5.49;68.53
55466;BME280;41329;41.594;23.810;2024-02-21T06:47:09;95928.38;;;5.35;69.22
55466;BME280;41329;41.594;23.810;2024-02-21T06:49:35;95927.88;;;5.42;69.68
55466;BME280;41329;41.594;23.810;2024-02-21T06:52:04;95931.44;;;5.51;69.63
55466;BME280;41329;41.594;23.810;2024-02-21T06:54:30;95930.59;;;5.59;69.29
55466;BME280;41329;41.594;23.810;2024-02-21T06:56:56;95934.13;;;5.76;69.61
55466;BME280;41329;41.594;23.810;2024-02-21T06:59:21;95916.41;;;5.57;69.13
55466;BME280;41329;41.594;23.810;2024-02-21T07:01:49;95940.75;;;5.75;69.36
55466;BME280;41329;41.594;23.810;2024-02-21T07:04:14;95932.38;;;5.80;69.58
55466;BME280;41329;41.594;23.810;2024-02-21T07:06:41;95935.09;;;5.89;69.07
55466;BME280;41329;41.594;23.810;2024-02-21T07:09:06;95918.94;;;5.87;69.04
55466;BME280;41329;41.594;23.810;2024-02-21T07:11:31;95921.94;;;6.11;69.24
55466;BME280;41329;41.594;23.810;2024-02-21T07:13:57;95931.88;;;6.33;69.20
55466;BME280;41329;41.594;23.810;2024-02-21T07:16:22;95929.75;;;6.38;68.90
55466;BME280;41329;41.594;23.810;2024-02-21T07:18:48;95928.03;;;6.54;68.54
55466;BME280;41329;41.594;23.810;2024-02-21T07:21:13;95931.09;;;6.53;68.07
55466;BME280;41329;41.594;23.810;2024-02-21T07:23:41;95923.88;;;6.48;68.37
55466;BME280;41329;41.594;23.810;2024-02-21T07:26:07;95926.00;;;6.43;67.57
55466;BME280;41329;41.594;23.810;2024-02-21T07:28:32;95934.00;;;6.57;68.62
55466;BME280;41329;41.594;23.810;2024-02-21T07:30:59;95932.88;;;6.57;68.38
55466;BME280;41329;41.594;23.810;2024-02-21T07:33:25;95934.38;;;6.76;68.52
55466;BME280;41329;41.594;23.810;2024-02-21T07:35:50;95914.94;;;6.81;67.67
55466;BME280;41329;41.594;23.810;2024-02-21T07:38:16;95927.19;;;7.12;68.33
55466;BME280;41329;41.594;23.810;2024-02-21T07:40:44;95923.28;;;7.13;66.50
55466;BME280;41329;41.594;23.810;2024-02-21T07:43:10;95929.38;;;6.98;66.02
55466;BME280;41329;41.594;23.810;2024-02-21T07:45:36;95923.94;;;6.90;66.59
55466;BME280;41329;41.594;23.810;2024-02-21T07:48:02;95926.03;;;7.13;66.16
55466;BME280;41329;41.594;23.810;2024-02-21T07:50:27;95915.88;;;6.85;65.39
55466;BME280;41329;41.594;23.810;2024-02-21T07:52:53;95912.03;;;6.77;64.88
55466;BME280;41329;41.594;23.810;2024-02-21T07:55:18;95930.22;;;6.90;65.44
55466;BME280;41329;41.594;23.810;2024-02-21T07:57:43;95909.09;;;6.82;65.80
55466;BME280;41329;41.594;23.810;2024-02-21T08:00:09;95922.94;;;6.65;65.05
55466;BME280;41329;41.594;23.810;2024-02-21T08:02:40;95902.28;;;6.59;65.41
55466;BME280;41329;41.594;23.810;2024-02-21T08:05:05;95919.91;;;6.87;65.12
55466;BME280;41329;41.594;23.810;2024-02-21T08:07:31;95907.56;;;6.93;65.49
55466;BME280;41329;41.594;23.810;2024-02-21T08:09:56;95924.97;;;7.26;65.57
55466;BME280;41329;41.594;23.810;2024-02-21T08:12:22;95919.84;;;7.37;63.19
55466;BME280;41329;41.594;23.810;2024-02-21T08:14:47;95915.84;;;7.67;64.83
55466;BME280;41329;41.594;23.810;2024-02-21T08:17:12;95908.88;;;7.81;62.56
55466;BME280;41329;41.594;23.810;2024-02-21T08:19:38;95920.19;;;8.12;63.11
55466;BME280;41329;41.594;23.810;2024-02-21T08:22:03;95901.50;;;8.18;62.24
55466;BME280;41329;41.594;23.810;2024-02-21T08:24:29;95909.56;;;8.35;61.88
55466;BME280;41329;41.594;23.810;2024-02-21T08:26:54;95890.28;;;8.47;60.53
55466;BME280;41329;41.594;23.810;2024-02-21T08:29:19;95905.91;;;8.79;60.39
55466;BME280;41329;41.594;23.810;2024-02-21T08:31:45;95899.56;;;8.90;59.61
55466;BME280;41329;41.594;23.810;2024-02-21T08:34:10;95881.66;;;8.84;59.23
55466;BME280;41329;41.594;23.810;2024-02-21T08:36:36;95897.69;;;9.06;59.07
55466;BME280;41329;41.594;23.810;2024-02-21T08:39:02;95892.59;;;9.20;59.06
55466;BME280;41329;41.594;23.810;2024-02-21T08:41:30;95894.03;;;9.42;59.41
55466;BME280;41329;41.594;23.810;2024-02-21T08:43:56;95895.56;;;9.67;59.00
55466;BME280;41329;41.594;23.810;2024-02-21T08:46:22;95880.34;;;9.88;58.05
55466;BME280;41329;41.594;23.810;2024-02-21T08:48:49;95885.44;;;10.02;56.57
55466;BME280;41329;41.594;23.810;2024-02-21T08:51:15;95891.22;;;10.09;56.22
55466;BME280;41329;41.594;23.810;2024-02-21T08:53:40;95871.63;;;10.02;55.69
55466;BME280;41329;41.594;23.810;2024-02-21T08:56:06;95888.72;;;10.19;54.71
55466;BME280;41329;41.594;23.810;2024-02-21T08:58:32;95888.00;;;10.22;52.74
55466;BME280;41329;41.594;23.810;2024-02-21T09:00:58;95893.81;;;10.48;56.13
55466;BME280;41329;41.594;23.810;2024-02-21T09:03:24;95882.00;;;10.51;54.37
55466;BME280;41329;41.594;23.810;2024-02-21T09:05:50;95878.38;;;10.63;53.25
55466;BME280;41329;41.594;23.810;2024-02-21T09:08:15;95876.22;;;10.56;50.46
55466;BME280;41329;41.594;23.810;2024-02-21T09:10:41;95877.63;;;10.66;52.52
55466;BME280;41329;41.594;23.810;2024-02-21T09:13:06;95885.53;;;10.83;52.20
55466;BME280;41329;41.594;23.810;2024-02-21T09:15:33;95877.72;;;10.69;52.75
55466;BME280;41329;41.594;23.810;2024-02-21T09:17:59;95887.03;;;10.96;50.97
55466;BME280;41329;41.594;23.810;2024-02-21T09:20:24;95876.78;;;10.96;50.63
55466;BME280;41329;41.594;23.810;2024-02-21T09:22:49;95881.09;;;11.13;51.99
55466;BME280;41329;41.594;23.810;2024-02-21T09:25:15;95876.84;;;11.15;50.33
55466;BME280;41329;41.594;23.810;2024-02-21T09:27:41;95876.25;;;11.25;49.06
55466;BME280;41329;41.594;23.810;2024-02-21T09:30:06;95876.13;;;11.03;48.29
55466;BME280;41329;41.594;23.810;2024-02-21T09:32:32;95885.84;;;11.12;49.40
55466;BME280;41329;41.594;23.810;2024-02-21T09:34:58;95870.28;;;11.42;49.84
55466;BME280;41329;41.594;23.810;2024-02-21T09:37:23;95879.13;;;11.67;50.27
55466;BME280;41329;41.594;23.810;2024-02-21T09:39:49;95860.09;;;11.65;47.79
55466;BME280;41329;41.594;23.810;2024-02-21T09:42:20;95866.44;;;11.66;46.56
55466;BME280;41329;41.594;23.810;2024-02-21T09:44:46;95874.47;;;11.90;47.36
55466;BME280;41329;41.594;23.810;2024-02-21T09:47:26;95868.19;;;12.15;47.67
55466;BME280;41329;41.594;23.810;2024-02-21T09:49:58;95882.56;;;12.21;47.11
55466;BME280;41329;41.594;23.810;2024-02-21T09:52:26;95854.25;;;12.12;44.68
55466;BME280;41329;41.594;23.810;2024-02-21T09:54:51;95865.69;;;11.88;45.55
55466;BME280;41329;41.594;23.810;2024-02-21T09:57:18;95865.25;;;11.86;45.50
55466;BME280;41329;41.594;23.810;2024-02-21T09:59:44;95856.28;;;11.92;44.89
55466;BME280;41329;41.594;23.810;2024-02-21T10:02:10;95874.03;;;12.10;44.56
55466;BME280;41329;41.594;23.810;2024-02-21T10:04:39;95852.03;;;12.21;44.36
55466;BME280;41329;41.594;23.810;2024-02-21T10:07:04;95848.34;;;12.36;45.32
55466;BME280;41329;41.594;23.810;2024-02-21T10:09:30;95854.28;;;12.83;46.69
55466;BME280;41329;41.594;23.810;2024-02-21T10:12:06;95848.91;;;13.20;45.77
55466;BME280;41329;41.594;23.810;2024-02-21T10:14:32;95835.72;;;13.13;41.62
55466;BME280;41329;41.594;23.810;2024-02-21T10:16:57;95846.50;;;13.18;41.46
55466;BME280;41329;41.594;23.810;2024-02-21T10:19:26;95838.94;;;13.15;40.41
55466;BME280;41329;41.594;23.810;2024-02-21T10:22:02;95830.59;;;13.15;41.02
55466;BME280;41329;41.594;23.810;2024-02-21T10:24:29;95828.66;;;13.19;41.44
55466;BME280;41329;41.594;23.810;2024-02-21T10:27:07;95821.03;;;13.42;42.63
55466;BME280;41329;41.594;23.810;2024-02-21T10:29:34;95815.69;;;13.30;38.03
55466;BME280;41329;41.594;23.810;2024-02-21T10:32:18;95806.31;;;13.42;39.58
55466;BME280;41329;41.594;23.810;2024-02-21T10:34:43;95802.31;;;13.39;38.37
55466;BME280;41329;41.594;23.810;2024-02-21T10:37:11;95809.03;;;13.68;41.86
55466;BME280;41329;41.594;23.810;2024-02-21T10:39:41;95793.47;;;14.00;39.69
55466;BME280;41329;41.594;23.810;2024-02-21T10:42:07;95802.22;;;14.38;40.79
55466;BME280;41329;41.594;23.810;2024-02-21T10:44:39;95797.63;;;14.60;38.73
55466;BME280;41329;41.594;23.810;2024-02-21T10:47:10;95791.19;;;14.52;37.42
55466;BME280;41329;41.594;23.810;2024-02-21T10:49:40;95783.66;;;14.56;37.79
55466;BME280;41329;41.594;23.810;2024-02-21T10:52:13;95775.19;;;14.39;37.48
55466;BME280;41329;41.594;23.810;2024-02-21T10:57:06;95739.28;;;14.81;38.78
55466;BME280;41329;41.594;23.810;2024-02-21T10:59:32;95765.22;;;14.95;36.46
55466;BME280;41329;41.594;23.810;2024-02-21T11:01:57;95733.41;;;14.96;37.07
55466;BME280;41329;41.594;23.810;2024-02-21T11:04:24;95739.88;;;15.18;35.71
55466;BME280;41329;41.594;23.810;2024-02-21T11:06:49;95748.78;;;15.41;35.11
55466;BME280;41329;41.594;23.810;2024-02-21T11:09:16;95746.66;;;15.20;33.77
55466;BME280;41329;41.594;23.810;2024-02-21T11:11:43;95741.50;;;15.19;34.74
55466;BME280;41329;41.594;23.810;2024-02-21T11:14:11;95740.03;;;15.46;35.70
55466;BME280;41329;41.594;23.810;2024-02-21T11:16:38;95741.72;;;15.75;34.78
55466;BME280;41329;41.594;23.810;2024-02-21T11:19:09;95724.59;;;15.87;36.41
55466;BME280;41329;41.594;23.810;2024-02-21T11:21:37;95731.81;;;16.05;35.67
55466;BME280;41329;41.594;23.810;2024-02-21T11:24:05;95715.88;;;16.09;31.75
55466;BME280;41329;41.594;23.810;2024-02-21T11:26:32;95713.84;;;15.82;33.56
55466;BME280;41329;41.594;23.810;2024-02-21T11:29:02;95727.41;;;16.01;33.49
55466;BME280;41329;41.594;23.810;2024-02-21T11:31:44;95727.44;;;16.29;34.98
55466;BME280;41329;41.594;23.810;2024-02-21T11:34:11;95703.50;;;16.28;34.10
55466;BME280;41329;41.594;23.810;2024-02-21T11:36:47;95716.25;;;16.08;34.03
55466;BME280;41329;41.594;23.810;2024-02-21T11:39:26;95694.69;;;15.73;32.17
55466;BME280;41329;41.594;23.810;2024-02-21T11:42:06;95711.44;;;15.98;32.03
55466;BME280;41329;41.594;23.810;2024-02-21T11:44:34;95707.47;;;15.95;34.37
55466;BME280;41329;41.594;23.810;2024-02-21T11:47:00;95705.06;;;15.80;33.22
55466;BME280;41329;41.594;23.810;2024-02-21T11:49:26;95705.44;;;15.78;33.12
55466;BME280;41329;41.594;23.810;2024-02-21T11:51:59;95700.63;;;15.61;34.00
55466;BME280;41329;41.594;23.810;2024-02-21T11:54:26;95686.66;;;15.51;34.16
55466;BME280;41329;41.594;23.810;2024-02-21T11:56:51;95701.31;;;15.34;33.98
55466;BME280;41329;41.594;23.810;2024-02-21T11:59:16;95694.25;;;15.50;35.63
55466;BME280;41329;41.594;23.810;2024-02-21T12:01:42;95690.25;;;15.48;33.71
55466;BME280;41329;41.594;23.810;2024-02-21T12:04:07;95662.75;;;15.50;34.27
55466;BME280;41329;41.594;23.810;2024-02-21T12:06:33;95679.88;;;15.45;35.85
55466;BME280;41329;41.594;23.810;2024-02-21T12:08:59;95661.16;;;15.56;35.30
55466;BME280;41329;41.594;23.810;2024-02-21T12:11:24;95670.38;;;15.81;33.73
55466;BME280;41329;41.594;23.810;2024-02-21T12:14:03;95666.00;;;15.76;34.26
55466;BME280;41329;41.594;23.810;2024-02-21T12:16:30;95645.66;;;15.76;33.27
55466;BME280;41329;41.594;23.810;2024-02-21T12:18:59;95652.84;;;15.80;34.11
55466;BME280;41329;41.594;23.810;2024-02-21T12:21:34;95652.03;;;16.15;34.25
55466;BME280;41329;41.594;23.810;2024-02-21T12:24:24;95652.84;;;15.98;33.09
55466;BME280;41329;41.594;23.810;2024-02-21T12:26:53;95655.66;;;15.91;31.65
55466;BME280;41329;41.594;23.810;2024-02-21T12:29:19;95649.13;;;15.31;33.09
55466;BME280;41329;41.594;23.810;2024-02-21T12:31:45;95648.00;;;15.46;33.00
55466;BME280;41329;41.594;23.810;2024-02-21T12:34:10;95638.44;;;15.43;33.66
55466;BME280;41329;41.594;23.810;2024-02-21T12:36:41;95654.44;;;15.88;34.53
55466;BME280;41329;41.594;23.810;2024-02-21T12:39:08;95639.28;;;15.79;32.24
55466;BME280;41329;41.594;23.810;2024-02-21T12:41:34;95640.88;;;16.01;32.93
55466;BME280;41329;41.594;23.810;2024-02-21T12:44:01;95642.50;;;16.05;32.12
55466;BME280;41329;41.594;23.810;2024-02-21T12:46:28;95645.66;;;16.35;33.38
55466;BME280;41329;41.594;23.810;2024-02-21T12:48:54;95643.25;;;16.37;31.67
55466;BME280;41329;41.594;23.810;2024-02-21T12:51:19;95645.25;;;16.33;31.21
55466;BME280;41329;41.594;23.810;2024-02-21T12:53:47;95628.53;;;16.16;30.82
55466;BME280;41329;41.594;23.810;2024-02-21T12:56:15;95619.75;;;15.68;31.34
55466;BME280;41329;41.594;23.810;2024-02-21T12:58:40;95610.16;;;15.34;31.49